FRD weather

Friday Harbor Airport
Friday Harbor, Washington, United States

Public forecast

Using degrees Fahrenheit for public forecast. Weather courtesy of forecast.io.

Current aviation weather report (METAR) for Friday Harbor Airport

Retrieved 2019/10/14 18:53 UTC (46 minutes ago):

KFHR 141853Z AUTO 00000KT 10SM OVC011 10/08 A3013 RMK AO2 SLP204 T01000078

Closest aviation forecast (TAF) to Friday Harbor Airport

Closest forecast is Victoria Harbour Seaplane Base, 15.6 nm (29.0 km) WSW. Retrieved 2019/10/14 18:00 UTC (2 hours ago):

TAF CYWH 141740Z 1418/1504 12005KT P6SM FEW008 TEMPO 1418/1420 BKN008 FM142200 12005KT P6SM BKN140 RMK NXT FCST BY 150000Z